CLASSIFICATION TEAM 14km Hilly Time Trial
home
    idracetypedateroutekmelevation (m)Pos.PETTORALEFamily NameNamescoregenderteamNAZIONALITACATEGORIAPOSIZIONECATTimeReal
    time
    Average
    km/hr
    RW14km Hilly Time TrialTT14/09/2018unic14,0050,0011AljarallahOmar200MRWSaudiOpen Male1/2700:21:4200:21:4238,60
    RW14km Hilly Time TrialTT14/09/2018unic14,0050,00218PoetzschPatrick199MRWGermanVeteran Male1/3200:21:5700:21:5738,20
    RW14km Hilly Time TrialTT14/09/2018unic14,0050,003214AlMakiFahadMRWSaudiVeteran Male2/3200:22:1000:22:1037,80
    RW14km Hilly Time TrialTT14/09/2018unic14,0050,004103AlQublanKhalid198MRWSaudiOpen Male2/2700:22:1400:22:1437,70
    RW14km Hilly Time TrialTT14/09/2018unic14,0050,005104AlMutairiSultan197MRWSaudiOpen Male3/2700:22:2100:22:2137,50
    RW14km Hilly Time TrialTT14/09/2018unic14,0050,00644AlKhuwaiterRayan196MRWSaudiOpen Male4/2700:22:3100:22:3137,20
    RW14km Hilly Time TrialTT14/09/2018unic14,0050,0075von SkwarczinskyClemens195MRWGermanVeteran Male3/3200:22:4300:22:4336,90
    RW14km Hilly Time TrialTT14/09/2018unic14,0050,00872DercoBrandon194MRWAmericanVeteran Male4/3200:22:4800:22:4836,80
    RW14km Hilly Time TrialTT14/09/2018unic14,0050,0096Dela RosaMichael193MRWFilipinoOpen Male5/2700:22:5800:22:5836,50
    RW14km Hilly Time TrialTT14/09/2018unic14,0050,00107SolimanPercival Jr192MRWFilipinoVeteran Male5/3200:23:1700:23:1736,00
    RW14km Hilly Time TrialTT14/09/2018unic14,0050,00114KubaJiri191MRWGermanSenior Male1/300:23:1700:23:1736,00
    RW14km Hilly Time TrialTT14/09/2018unic14,0050,001280ArafahAshraf190MRWSaudiOpen Male6/2700:23:3400:23:3435,60
    RW14km Hilly Time TrialTT14/09/2018unic14,0050,001340JazaeriYamen189MRWSyrianOpen Male7/2700:23:3400:23:3435,60
    RW14km Hilly Time TrialTT14/09/2018unic14,0050,001417PinanoAlfie188MRWFilipinoOpen Male8/2700:23:3900:23:3935,50
    RW14km Hilly Time TrialTT14/09/2018unic14,0050,001512McLeanJohn187MRWBritishVeteran Male6/3200:23:4200:23:4235,40
    RW14km Hilly Time TrialTT14/09/2018unic14,0050,0016113GicanaRamil186MRWFilipinoVeteran Male7/3200:23:5000:23:5035,20
    RW14km Hilly Time TrialTT14/09/2018unic14,0050,001765EtchellPaul185MRWBritishVeteran Male8/3200:23:5600:23:5635,00
    RW14km Hilly Time TrialTT14/09/2018unic14,0050,00188MorrisDavid184MRWBritishVeteran Male9/3200:23:5800:23:5835,00
    RW14km Hilly Time TrialTT14/09/2018unic14,0050,001915AlBabtainAnas183MRWSaudiVeteran Male10/3200:23:5900:23:5935,00
    RW14km Hilly Time TrialTT14/09/2018unic14,0050,00209WaightScott182MRWNew ZealandVeteran Male11/3200:23:5900:23:5935,00
    RW14km Hilly Time TrialTT14/09/2018unic14,0050,002173DollemanRogier181MRWNetherlandsVeteran Male12/3200:24:1100:24:1134,70
    RW14km Hilly Time TrialTT14/09/2018unic14,0050,0022206AlGhashamMohammedMRWSaudiOpen Male9/2700:24:5000:24:5033,80
    RW14km Hilly Time TrialTT14/09/2018unic14,0050,002331SungaJaime180MRWFilipinoMaster Male1/1300:24:5300:24:5333,70
    RW14km Hilly Time TrialTT14/09/2018unic14,0050,002445PelletierJason179MRWAmericanVeteran Male13/3200:24:5300:24:5333,70
    RW14km Hilly Time TrialTT14/09/2018unic14,0050,002534SumonodJorge178MRWFilipinoOpen Male10/2700:24:5600:24:5633,60
    RW14km Hilly Time TrialTT14/09/2018unic14,0050,0026111AlvesCarlos177MRWAustralianVeteran Male14/3200:25:0400:25:0433,40
    RW14km Hilly Time TrialTT14/09/2018unic14,0050,002777SkarupaTomasz176MRWItalianVeteran Male15/3200:25:0600:25:0633,40
    RW14km Hilly Time TrialTT14/09/2018unic14,0050,002837LandoEdoardo175MRWItalianSenior Male2/300:25:0800:25:0833,40
    RW14km Hilly Time TrialTT14/09/2018unic14,0050,002967DeansPhilip174MRWBritishMaster Male2/1300:25:1100:25:1133,30
    RW14km Hilly Time TrialTT14/09/2018unic14,0050,003069DetomalBernard173MRWFilipinoVeteran Male16/3200:25:3100:25:3132,90
    RW14km Hilly Time TrialTT14/09/2018unic14,0050,003123CalagoErwin172MRWFilipinoVeteran Male17/3200:25:3400:25:3432,80
    RW14km Hilly Time TrialTT14/09/2018unic14,0050,003278MaicanSorin171MRWRomaniaVeteran Male18/3200:25:4000:25:4032,70
    RW14km Hilly Time TrialTT14/09/2018unic14,0050,003375DiogoJoad170MRWPortugueseVeteran Male19/3200:25:4300:25:4332,60
    RW14km Hilly Time TrialTT14/09/2018unic14,0050,003426KootPaul169MRWNetherlandsOpen Male11/2700:26:0000:26:0032,30
    RW14km Hilly Time TrialTT14/09/2018unic14,0050,0035123MarinasHerbert Paul168MRWFilipinoOpen Male12/2700:26:0100:26:0132,20
    RW14km Hilly Time TrialTT14/09/2018unic14,0050,003611AlMuayqilAbdulmajeed167MRWSaudiOpen Male13/2700:26:0100:26:0132,20
    RW14km Hilly Time TrialTT14/09/2018unic14,0050,0037208CabritaJose FilipeMRWPortugueseVeteran Male20/3200:26:0200:26:0232,20
    RW14km Hilly Time TrialTT14/09/2018unic14,0050,003832OcaEdilberto166MRWFilipinoMaster Male3/1300:26:0400:26:0432,20
    RW14km Hilly Time TrialTT14/09/2018unic14,0050,003919SantosMarvin165MRWFilipinoOpen Male14/2700:26:1100:26:1132,00
    RW14km Hilly Time TrialTT14/09/2018unic14,0050,004036JohnsonDavid164MRWAmericanOpen Male15/2700:26:1500:26:1531,90
    RW14km Hilly Time TrialTT14/09/2018unic14,0050,0041150AppleyardStephen163MRWBritishMaster Male4/1300:26:1700:26:1731,90
    RW14km Hilly Time TrialTT14/09/2018unic14,0050,004220TabbalFloren Pal162MRWFilipinoOpen Male16/2700:26:1700:26:1731,90
    RW14km Hilly Time TrialTT14/09/2018unic14,0050,004399WhiteAndrew161MRWCanadianVeteran Male21/3200:26:2200:26:2231,80
    RW14km Hilly Time TrialTT14/09/2018unic14,0050,004455Suarez FernandezAntonio160MRWSpanishVeteran Male22/3200:26:2400:26:2431,80
    RW14km Hilly Time TrialTT14/09/2018unic14,0050,004597MartinezDavid159MRWSpanishVeteran Male23/3200:26:3300:26:3331,60
    RW14km Hilly Time TrialTT14/09/2018unic14,0050,004622PeruchoRonald158MRWFilipinoVeteran Male24/3200:26:3300:26:3331,60
    RW14km Hilly Time TrialTT14/09/2018unic14,0050,0047128GicanaJun157MRWFilipinoVeteran Male25/3200:26:3900:26:3931,50
    RW14km Hilly Time TrialTT14/09/2018unic14,0050,0048117CordialJun156MRWFilipinoVeteran Male26/3200:26:5400:26:5431,20
    RW14km Hilly Time TrialTT14/09/2018unic14,0050,004960StrongBrian155MRWCanadianMaster Male5/1300:27:1000:27:1030,90
    RW14km Hilly Time TrialTT14/09/2018unic14,0050,005098MohamedBilal154MRWBritishOpen Male17/2700:27:2400:27:2430,60
    RW14km Hilly Time TrialTT14/09/2018unic14,0050,0051204GrossmannKarl-HeinzMRWGermanMaster Male6/1300:27:2900:27:2930,50
    RW14km Hilly Time TrialTT14/09/2018unic14,0050,0052207MarieMohammadMRWJordanianOpen Male18/2700:27:3700:27:3730,40
    RW14km Hilly Time TrialTT14/09/2018unic14,0050,005325MendozaHans200MRWFilipinoJunior Male1/300:27:4000:27:4030,30
    RW14km Hilly Time TrialTT14/09/2018unic14,0050,0054201GalendezBenMRWAmericanVeteran Male27/3200:27:5800:27:5830,00
    RW14km Hilly Time TrialTT14/09/2018unic14,0050,0055212ChadraOsamaMRWJordanianOpen Male19/2700:28:1200:28:1229,70
    RW14km Hilly Time TrialTT14/09/2018unic14,0050,005671MendozaRichard153MRWFilipinoVeteran Male28/3200:28:3300:28:3329,40
    RW14km Hilly Time TrialTT14/09/2018unic14,0050,005733MarinasFlorie200FRWFilipinoOpen Female1/300:28:3900:28:3929,30
    RW14km Hilly Time TrialTT14/09/2018unic14,0050,0058116CordialNico Andrei199MRWFilipinoJunior Male2/300:28:5100:28:5129,10
    RW14km Hilly Time TrialTT14/09/2018unic14,0050,0059100AraujoMaria199FRWItalianMaster Female1/400:28:5700:28:5729,00
    RW14km Hilly Time TrialTT14/09/2018unic14,0050,006028EllaBenedict152MRWFilipinoMaster Male7/1300:28:5800:28:5828,90
    RW14km Hilly Time TrialTT14/09/2018unic14,0050,006181JavierJessie151MRWFilipinoMaster Male8/1300:29:0900:29:0928,80
    RW14km Hilly Time TrialTT14/09/2018unic14,0050,0062213CabbillionJulietoMRWFilipinoMaster Male9/1300:29:2200:29:2228,50
    RW14km Hilly Time TrialTT14/09/2018unic14,0050,0063209CalvertJillFRWBritishOpen Female2/300:29:2300:29:2328,50
    RW14km Hilly Time TrialTT14/09/2018unic14,0050,006466BurkeCarmel198FRWIrishMaster Female2/400:29:4900:29:4928,10
    RW14km Hilly Time TrialTT14/09/2018unic14,0050,006568PetkovskiDragan150MRWCroatiaMaster Male10/1300:30:0900:30:0927,80
    RW14km Hilly Time TrialTT14/09/2018unic14,0050,006694MahfouzTalal149MRWFrenchSenior Male3/300:30:2100:30:2127,60
    RW14km Hilly Time TrialTT14/09/2018unic14,0050,0067200HornburgKirkMRWAmericanMaster Male11/1300:30:2400:30:2427,60
    RW14km Hilly Time TrialTT14/09/2018unic14,0050,006847ShbairMohammed148MRWPalestineOpen Male20/2700:30:3500:30:3527,40
    RW14km Hilly Time TrialTT14/09/2018unic14,0050,006927AlKilaniAlaa Eddin147MRWJordanianOpen Male21/2700:30:4900:30:4927,20
    RW14km Hilly Time TrialTT14/09/2018unic14,0050,007050SinerPaul146MRWBritishVeteran Male29/3200:30:5300:30:5327,10
    RW14km Hilly Time TrialTT14/09/2018unic14,0050,007142GuptaVikas145MRWIndianVeteran Male30/3200:31:0600:31:0626,90
    RW14km Hilly Time TrialTT14/09/2018unic14,0050,0072210AlMuayqilAbdulazizMRWSaudiOpen Male22/2700:31:2600:31:2626,70
    RW14km Hilly Time TrialTT14/09/2018unic14,0050,0073211AlaiwaYazeedMRWSaudiOpen Male23/2700:32:2100:32:2125,90
    RW14km Hilly Time TrialTT14/09/2018unic14,0050,007488AbreuMarcus144MRWBrazilianMaster Male12/1300:32:3800:32:3825,70
    RW14km Hilly Time TrialTT14/09/2018unic14,0050,0075205AlBabtainBassamMRWSaudiOpen Male24/2700:32:4200:32:4225,60
    RW14km Hilly Time TrialTT14/09/2018unic14,0050,007630MarinasRaffaello David198MRWFilipinoJunior Male3/300:32:5900:32:5925,40
    RW14km Hilly Time TrialTT14/09/2018unic14,0050,007743SatputeSanjay143MRWIndianOpen Male25/2700:33:0500:33:0525,30
    RW14km Hilly Time TrialTT14/09/2018unic14,0050,0078102LandoFederica200FRWItalianJunior Female1/200:33:5200:33:5224,80
    RW14km Hilly Time TrialTT14/09/2018unic14,0050,007916AlMasoudAbdullah142MRWSaudiOpen Male26/2700:34:0900:34:0924,50
    RW14km Hilly Time TrialTT14/09/2018unic14,0050,008054AlsarhaniAbdullah141MRWSaudiMaster Male13/1300:34:2800:34:2824,30
    RW14km Hilly Time TrialTT14/09/2018unic14,0050,0081101LandoAlexandra199FRWItalianJunior Female2/200:34:5600:34:5624,00
    RW14km Hilly Time TrialTT14/09/2018unic14,0050,008224GankemaJeroen140MRWNetherlandsVeteran Male31/3200:36:4100:36:4122,80
    RW14km Hilly Time TrialTT14/09/2018unic14,0050,008392MendozaLani197FRWFilipinoMaster Female3/400:37:4000:37:4022,20
    RW14km Hilly Time TrialTT14/09/2018unic14,0050,008451SinerAnastassiya196FRWKazakhstanOpen Female3/300:38:2100:38:2121,80
    RW14km Hilly Time TrialTT14/09/2018unic14,0050,008576ArmanaziAsaad139MRWCanadianVeteran Male32/3200:38:4100:38:4121,70
    RW14km Hilly Time TrialTT14/09/2018unic14,0050,008613EdwardsKim195FRWAustralianMaster Female4/400:44:5900:44:5918,60
    RW14km Hilly Time TrialTT14/09/2018unic14,0050,0087120AlTuwaijriNezar138MRWSaudiOpen Male27/2700:48:0000:48:0017,40
    idracetypedateroute1.218,00
    km
    4350
    dislivello
    87
    n
    BIDFamily NameNamescoregenderteamNationalityCategoryPos.Cat.TimeReal
    time
    Average
    km/hr
Aljarallah OmarAlQublan Khalidvon Skwarczinsky ClemensDela Rosa MichaelSoliman Percival JrKuba JiriArafah AshrafMcLean JohnGicana RamilEtchell PaulMorris DavidWaight ScottDolleman RogierSunga JaimeSumonod JorgeAlves CarlosSkarupa TomaszLando EdoardoDeans PhilipDetomal Bernard
Calago ErwinMaican SorinMarinas Herbert PaulOca EdilbertoJohnson DavidAppleyard StephenTabbal Floren PalWhite AndrewSuarez Fernandez AntonioCordial JunStrong BrianMohamed BilalMendoza HansMendoza RichardMarinas FlorieCordial Nico AndreiAraujo MariaElla BenedictJavier JessieBurke Carmel
Petkovski DraganMahfouz TalalGupta VikasMarinas Raffaello DavidSatpute SanjayLando FedericaAlsarhani AbdullahLando AlexandraGankema JeroenArmanazi Asaad

14km Hilly Time Trial Athletes TEAM (first 200)

FIND ATHLETES races saved
find results also athletes others team
Fam.Name: Name:
rem: to insert Family name (It is simply a part of word)

FIND TEAM Races saved
You can find the result of others team
TEAM: RACE: ROUTE:
rem: to insert one team (It is simply a part of word)


home